Papalote, Texas
Current Conditions -  °F | °C
As of 12:51 AM on Saturday 20 Dec 2014 (Local Time) from KCRP Reporting Station
Overcast Overcast  
Wind Chill: 56°   Ceiling: 1300
Heat Index: 56°   Visibility: 10mi
Dew Point: 52°   Wind: 14mph
Humidity: 87%   Direction: 10°N
Pressure: 30.12"   Gusts: NA
Location:  28.0577°N, 97.5365°W
Report Text: KCRP 200651Z 01012KT 10SM BKN013 OVC018 13/11 A3012 RMK AO2 SLP198 T01330111 $
Loading
Personal Weather Stations






























Interactive Weather Map New forecast layout! Learn more

10-Day Weather Forecast

Advertisements
Track Severe Weather on mobile